Time;durP1;ratioP1;P1;durP2;ratioP2;P2;SDS_P1;SDS_P2;PMS_P1;PMS_P2;Temp;Humidity;BMP_temperature;BMP_pressure;BME280_temperature;BME280_humidity;BME280_pressure;Samples;Min_cycle;Max_cycle;Signal;HPM_P1;HPM_P2
2023/05/12 00:02:14;;;;;;;4.90;4.40;;;12.20;99.90;;;;;;5033829;28;20201;-78
2023/05/12 00:04:40;;;;;;;6.22;4.68;;;12.20;99.90;;;;;;5031965;28;20722;-75
2023/05/12 00:07:09;;;;;;;7.60;4.67;;;12.20;99.90;;;;;;5028637;28;20205;-79
2023/05/12 00:09:36;;;;;;;6.20;4.43;;;12.20;99.90;;;;;;5013832;28;20202;-81
2023/05/12 00:12:03;;;;;;;7.00;4.67;;;12.20;99.90;;;;;;5013626;28;20200;-82
2023/05/12 00:14:30;;;;;;;6.70;4.40;;;12.20;99.90;;;;;;5014112;28;20760;-81
2023/05/12 00:16:56;;;;;;;6.97;4.90;;;12.20;99.90;;;;;;5027726;28;20210;-84
2023/05/12 00:19:23;;;;;;;5.13;4.43;;;12.20;99.90;;;;;;5033517;28;20223;-81
2023/05/12 00:21:50;;;;;;;7.57;4.93;;;12.20;99.90;;;;;;5033765;28;20591;-77
2023/05/12 00:24:18;;;;;;;6.27;4.00;;;12.20;99.90;;;;;;5022137;28;20208;-81
2023/05/12 00:26:45;;;;;;;7.13;4.27;;;12.20;99.90;;;;;;5013599;28;20668;-82
2023/05/12 00:29:12;;;;;;;6.03;4.23;;;12.20;99.90;;;;;;5014014;28;20199;-80
2023/05/12 00:31:39;;;;;;;6.47;4.27;;;12.20;99.90;;;;;;5026620;28;20326;-80
2023/05/12 00:34:06;;;;;;;6.43;4.17;;;12.20;99.90;;;;;;5034122;28;20202;-80
2023/05/12 00:36:32;;;;;;;6.97;3.87;;;12.20;99.90;;;;;;5033821;28;20273;-82
2023/05/12 00:38:59;;;;;;;6.27;4.10;;;12.20;99.90;;;;;;5033002;28;20312;-82
2023/05/12 00:41:28;;;;;;;6.23;4.93;;;12.20;99.90;;;;;;5034235;28;20517;-82
2023/05/12 00:43:54;;;;;;;8.17;4.90;;;12.20;99.90;;;;;;5034302;28;20626;-83
2023/05/12 00:46:22;;;;;;;7.73;4.50;;;12.20;99.90;;;;;;5037128;28;20230;-82
2023/05/12 00:48:49;;;;;;;7.13;4.50;;;12.20;99.90;;;;;;5037627;28;20203;-80
2023/05/12 00:51:16;;;;;;;7.57;5.03;;;12.10;99.90;;;;;;5028863;28;20209;-76
2023/05/12 00:53:44;;;;;;;8.23;4.30;;;12.20;99.90;;;;;;5015991;28;20576;-82
2023/05/12 00:56:12;;;;;;;5.27;4.77;;;12.10;99.90;;;;;;5016908;28;20195;-74
2023/05/12 00:58:41;;;;;;;11.00;5.33;;;12.20;99.90;;;;;;5016573;28;20227;-74
2023/05/12 01:01:08;;;;;;;7.70;4.57;;;12.20;99.90;;;;;;5016372;28;20201;-76
2023/05/12 01:03:35;;;;;;;9.73;4.83;;;12.10;99.90;;;;;;5016180;28;20333;-78
2023/05/12 01:06:10;;;;;;;7.43;4.83;;;12.20;99.90;;;;;;5016570;28;20199;-74
2023/05/12 01:08:37;;;;;;;6.63;4.53;;;12.10;99.90;;;;;;5016133;28;20234;-78
2023/05/12 01:11:04;;;;;;;5.17;4.40;;;12.20;99.90;;;;;;5016173;28;20207;-73
2023/05/12 01:13:31;;;;;;;8.17;4.40;;;12.20;99.90;;;;;;5016361;28;20294;-75
2023/05/12 01:16:01;;;;;;;6.97;4.90;;;12.20;99.90;;;;;;5015779;28;20195;-75
2023/05/12 01:18:29;;;;;;;6.60;4.97;;;12.10;99.90;;;;;;5016173;28;20236;-75
2023/05/12 01:20:57;;;;;;;9.47;5.13;;;12.20;99.90;;;;;;5015535;28;20210;-76
2023/05/12 01:23:30;;;;;;;8.40;5.27;;;12.20;99.90;;;;;;5016202;28;20211;-75
2023/05/12 01:26:03;;;;;;;6.73;5.33;;;12.20;99.90;;;;;;5016328;28;20202;-75
2023/05/12 01:28:30;;;;;;;8.13;4.83;;;12.20;99.90;;;;;;5027121;28;20202;-78
2023/05/12 01:30:57;;;;;;;10.67;5.13;;;12.20;99.90;;;;;;5035481;28;20596;-73
2023/05/12 01:33:24;;;;;;;8.90;5.10;;;12.20;99.90;;;;;;5035982;28;20528;-74
2023/05/12 01:35:51;;;;;;;7.10;5.30;;;12.20;99.90;;;;;;5023429;28;20214;-75
2023/05/12 01:38:17;;;;;;;9.33;5.00;;;12.20;99.90;;;;;;5016198;28;20191;-76
2023/05/12 01:40:44;;;;;;;7.43;5.00;;;12.20;99.90;;;;;;5015872;28;20199;-83
2023/05/12 01:43:12;;;;;;;7.87;5.00;;;12.20;99.90;;;;;;5015296;28;20230;-78
2023/05/12 01:45:39;;;;;;;9.07;5.23;;;12.20;99.90;;;;;;5015499;28;20203;-74
2023/05/12 01:48:06;;;;;;;7.17;4.63;;;12.20;99.90;;;;;;5015453;28;20235;-80
2023/05/12 01:50:33;;;;;;;6.87;4.77;;;12.10;99.90;;;;;;5015515;28;20607;-81
2023/05/12 01:53:00;;;;;;;5.53;4.63;;;12.10;99.90;;;;;;5036316;28;20203;-79
2023/05/12 01:55:27;;;;;;;7.77;4.23;;;12.10;99.90;;;;;;5035319;28;20281;-82
2023/05/12 01:57:53;;;;;;;7.80;4.57;;;12.10;99.90;;;;;;5035489;28;20320;-81
2023/05/12 02:00:22;;;;;;;8.57;5.10;;;12.20;99.90;;;;;;5021633;28;20323;-84
2023/05/12 02:02:49;;;;;;;6.67;4.67;;;12.20;99.90;;;;;;5015459;28;20207;-81
2023/05/12 02:05:16;;;;;;;5.70;4.77;;;12.10;99.90;;;;;;5015131;28;20839;-78
2023/05/12 02:07:43;;;;;;;9.50;6.03;;;12.10;99.90;;;;;;5015399;28;20292;-81
2023/05/12 02:10:10;;;;;;;8.20;5.27;;;12.10;99.90;;;;;;5014603;28;20205;-75
2023/05/12 02:12:37;;;;;;;7.50;5.30;;;12.10;99.90;;;;;;5015866;28;20202;-75
2023/05/12 02:15:05;;;;;;;8.93;6.40;;;12.20;99.90;;;;;;5034946;28;20297;-75
2023/05/12 02:17:33;;;;;;;9.40;7.37;;;12.10;99.90;;;;;;5029711;28;20658;-76
2023/05/12 02:20:00;;;;;;;11.67;7.67;;;12.10;99.90;;;;;;5015257;28;20254;-75
2023/05/12 02:22:27;;;;;;;11.50;7.30;;;12.10;99.90;;;;;;5015022;28;20200;-76
2023/05/12 02:24:54;;;;;;;8.97;7.50;;;12.10;99.90;;;;;;5026577;28;20506;-76
2023/05/12 02:27:21;;;;;;;12.20;8.43;;;12.10;99.90;;;;;;5035192;28;20207;-81
2023/05/12 02:29:48;;;;;;;12.77;7.40;;;12.10;99.90;;;;;;5034208;28;20614;-80
2023/05/12 02:32:15;;;;;;;9.73;7.53;;;12.10;99.90;;;;;;5034385;28;20286;-76
2023/05/12 02:34:44;;;;;;;9.80;6.83;;;12.10;99.90;;;;;;5034888;28;20204;-76
2023/05/12 02:37:11;;;;;;;8.03;6.60;;;12.10;99.90;;;;;;5033067;28;20203;-76
2023/05/12 02:39:38;;;;;;;8.03;6.23;;;12.10;99.90;;;;;;5013661;28;20230;-77
2023/05/12 02:42:06;;;;;;;9.57;6.47;;;12.10;99.90;;;;;;5014666;28;20199;-77
2023/05/12 02:44:32;;;;;;;8.43;6.43;;;12.10;99.90;;;;;;5014780;28;20291;-77
2023/05/12 02:46:59;;;;;;;6.57;5.43;;;12.10;99.90;;;;;;5014137;28;20191;-81
2023/05/12 02:49:26;;;;;;;6.93;5.07;;;12.00;99.90;;;;;;5015187;28;20214;-80
2023/05/12 02:51:54;;;;;;;7.33;4.77;;;12.00;99.90;;;;;;5014764;28;20203;-78
2023/05/12 02:54:21;;;;;;;5.80;4.20;;;12.00;99.90;;;;;;5013859;28;20199;-80
2023/05/12 02:56:48;;;;;;;5.70;3.90;;;12.00;99.90;;;;;;5015263;28;20230;-80
2023/05/12 02:59:15;;;;;;;7.47;3.67;;;12.00;99.90;;;;;;5014591;28;20302;-80
2023/05/12 03:01:42;;;;;;;4.50;3.80;;;12.00;99.90;;;;;;5014272;28;20222;-77
2023/05/12 03:04:09;;;;;;;8.77;3.47;;;12.00;99.90;;;;;;5014238;28;20262;-78
2023/05/12 03:06:35;;;;;;;4.53;3.53;;;12.00;99.90;;;;;;5012718;28;20207;-78
2023/05/12 03:09:04;;;;;;;4.00;3.60;;;11.90;99.90;;;;;;5013735;28;20587;-78
2023/05/12 03:11:31;;;;;;;8.97;4.40;;;11.90;99.90;;;;;;5013714;28;20508;-77
2023/05/12 03:13:57;;;;;;;4.17;3.77;;;11.90;99.90;;;;;;5014133;28;20290;-78
2023/05/12 03:16:24;;;;;;;6.50;4.43;;;11.90;99.90;;;;;;5014156;28;20205;-80
2023/05/12 03:18:51;;;;;;;4.63;4.23;;;11.80;99.90;;;;;;5018474;28;20199;-78
2023/05/12 03:21:18;;;;;;;5.13;4.50;;;11.80;99.90;;;;;;5033705;28;20293;-80
2023/05/12 03:23:45;;;;;;;5.93;4.47;;;11.70;99.90;;;;;;5034000;28;20194;-79
2023/05/12 03:26:13;;;;;;;5.10;4.60;;;11.80;99.90;;;;;;5031658;28;20194;-79
2023/05/12 03:28:40;;;;;;;6.83;4.73;;;11.70;99.90;;;;;;5013830;28;20203;-79
2023/05/12 03:31:07;;;;;;;7.33;5.20;;;11.70;99.90;;;;;;5013977;28;20209;-78
2023/05/12 03:33:33;;;;;;;5.90;5.07;;;11.70;99.90;;;;;;5014147;28;20818;-80
2023/05/12 03:36:00;;;;;;;5.57;5.03;;;11.70;99.90;;;;;;5013449;28;20832;-77
2023/05/12 03:38:27;;;;;;;6.17;5.57;;;11.70;99.90;;;;;;5029378;28;20295;-79
2023/05/12 03:41:03;;;;;;;8.00;5.87;;;11.70;99.90;;;;;;5034067;28;20309;-80
2023/05/12 03:43:32;;;;;;;7.23;6.10;;;11.60;99.90;;;;;;5032408;28;20217;-79
2023/05/12 03:45:59;;;;;;;6.50;5.67;;;11.60;99.90;;;;;;5033677;28;20531;-79
2023/05/12 03:48:26;;;;;;;6.80;6.07;;;11.60;99.90;;;;;;5027824;28;20211;-80
2023/05/12 03:50:53;;;;;;;7.53;5.93;;;11.60;99.90;;;;;;5013436;28;20505;-80
2023/05/12 03:53:19;;;;;;;7.27;6.33;;;11.60;99.90;;;;;;5013892;28;20187;-80
2023/05/12 03:55:46;;;;;;;7.30;6.17;;;11.60;99.90;;;;;;5013763;28;20286;-78
2023/05/12 03:58:14;;;;;;;7.77;6.07;;;11.60;99.90;;;;;;5014072;28;20313;-79
2023/05/12 04:00:42;;;;;;;6.83;6.20;;;11.60;99.90;;;;;;5013659;28;20223;-79
2023/05/12 04:03:09;;;;;;;8.03;6.20;;;11.70;99.90;;;;;;5017595;28;20236;-81
2023/05/12 04:05:38;;;;;;;6.50;5.90;;;11.60;99.90;;;;;;5033795;28;20209;-78
2023/05/12 04:08:05;;;;;;;6.70;6.00;;;11.70;99.90;;;;;;5033423;28;20205;-82
2023/05/12 04:10:32;;;;;;;7.57;5.93;;;11.70;99.90;;;;;;5032359;28;20194;-76
2023/05/12 04:12:58;;;;;;;7.80;6.50;;;11.70;99.90;;;;;;5032995;28;20664;-77
2023/05/12 04:15:25;;;;;;;6.43;5.50;;;11.70;99.90;;;;;;5033458;28;20206;-78
2023/05/12 04:17:55;;;;;;;7.43;6.40;;;11.70;99.90;;;;;;5032566;28;20230;-78
2023/05/12 04:20:21;;;;;;;7.63;5.33;;;11.70;99.90;;;;;;5023364;28;20293;-76
2023/05/12 04:22:50;;;;;;;7.07;5.47;;;11.70;99.90;;;;;;5017268;28;20198;-77
2023/05/12 04:25:17;;;;;;;7.47;6.03;;;11.80;99.90;;;;;;5016580;28;20206;-77
2023/05/12 04:27:43;;;;;;;7.40;6.60;;;11.70;99.90;;;;;;5017393;28;20202;-77
2023/05/12 04:30:11;;;;;;;10.17;6.60;;;11.80;99.90;;;;;;5017430;28;20200;-76
2023/05/12 04:32:37;;;;;;;11.40;7.40;;;11.80;99.90;;;;;;5016878;28;20234;-78
2023/05/12 04:35:06;;;;;;;11.73;7.53;;;11.80;99.90;;;;;;5026120;28;20203;-77
2023/05/12 04:37:33;;;;;;;9.63;7.80;;;11.90;99.90;;;;;;5036840;28;20228;-78
2023/05/12 04:40:00;;;;;;;10.70;8.30;;;11.80;99.90;;;;;;5036090;28;20519;-76
2023/05/12 04:42:27;;;;;;;12.20;8.97;;;11.80;99.90;;;;;;5036387;28;20294;-76
2023/05/12 04:44:53;;;;;;;18.53;11.37;;;11.90;99.90;;;;;;5016429;28;20298;-76
2023/05/12 04:47:20;;;;;;;15.57;11.53;;;11.90;99.90;;;;;;5016654;28;20651;-76
2023/05/12 04:49:47;;;;;;;17.33;12.03;;;11.90;99.90;;;;;;5017088;28;20206;-79
2023/05/12 04:52:15;;;;;;;15.57;11.40;;;11.90;99.90;;;;;;5016741;28;20235;-78
2023/05/12 04:54:43;;;;;;;20.70;14.00;;;11.90;99.90;;;;;;5016921;28;20570;-77
2023/05/12 04:57:09;;;;;;;22.47;14.80;;;11.90;99.90;;;;;;5016702;28;20192;-76
2023/05/12 04:59:36;;;;;;;27.23;16.87;;;12.00;99.90;;;;;;5016276;28;20223;-78
2023/05/12 05:02:03;;;;;;;25.73;17.07;;;12.10;99.90;;;;;;5016457;28;20206;-78
2023/05/12 05:04:30;;;;;;;32.87;19.37;;;12.00;99.90;;;;;;5016459;28;20231;-80
2023/05/12 05:06:57;;;;;;;28.63;18.40;;;12.10;99.90;;;;;;5015929;28;20592;-78
2023/05/12 05:09:25;;;;;;;35.10;22.90;;;12.10;99.90;;;;;;5016479;28;20213;-79
2023/05/12 05:11:52;;;;;;;42.97;26.53;;;12.20;99.90;;;;;;5016127;28;20206;-76
2023/05/12 05:14:19;;;;;;;40.77;25.50;;;12.30;99.90;;;;;;5015966;28;20199;-75
2023/05/12 05:16:46;;;;;;;46.33;27.13;;;12.30;99.90;;;;;;5016390;28;20600;-76
2023/05/12 05:19:13;;;;;;;46.43;27.10;;;12.30;99.90;;;;;;5016197;28;20275;-77
2023/05/12 05:21:40;;;;;;;41.40;26.87;;;12.30;99.90;;;;;;5015574;28;20223;-77
2023/05/12 05:24:07;;;;;;;42.43;26.70;;;12.40;99.90;;;;;;5015924;28;20539;-76
2023/05/12 05:26:36;;;;;;;44.07;27.83;;;12.30;99.90;;;;;;5016240;28;20226;-77
2023/05/12 05:29:04;;;;;;;44.13;26.67;;;12.40;99.90;;;;;;5031842;28;20257;-79
2023/05/12 05:31:31;;;;;;;46.57;29.20;;;12.40;99.90;;;;;;5034672;28;20365;-76
2023/05/12 05:33:57;;;;;;;43.37;26.87;;;12.40;99.90;;;;;;5021313;28;20659;-77
2023/05/12 05:36:25;;;;;;;43.27;26.60;;;12.40;99.90;;;;;;5015071;28;20203;-77
2023/05/12 05:38:52;;;;;;;40.50;26.70;;;12.40;99.90;;;;;;5015346;28;20309;-80
2023/05/12 05:41:20;;;;;;;38.63;25.30;;;12.40;99.90;;;;;;5014767;28;20227;-76
2023/05/12 05:43:48;;;;;;;43.37;26.00;;;12.50;99.90;;;;;;5015632;28;20547;-75
2023/05/12 05:46:15;;;;;;;39.87;25.73;;;12.50;99.90;;;;;;5034816;28;20513;-75
2023/05/12 05:48:41;;;;;;;42.47;26.47;;;12.50;99.90;;;;;;5034651;28;20229;-76
2023/05/12 05:51:10;;;;;;;40.77;27.10;;;12.50;99.90;;;;;;5035384;28;20595;-82
2023/05/12 05:53:37;;;;;;;44.67;27.53;;;12.50;99.90;;;;;;5034626;28;20302;-78
2023/05/12 05:56:04;;;;;;;39.17;24.97;;;12.50;99.90;;;;;;5035188;28;20593;-80
2023/05/12 05:58:31;;;;;;;39.93;25.80;;;12.50;99.90;;;;;;5035254;28;20214;-79
2023/05/12 06:01:00;;;;;;;39.47;25.13;;;12.50;99.90;;;;;;5030696;28;20306;-79
2023/05/12 06:03:27;;;;;;;40.03;25.73;;;12.50;99.90;;;;;;5014959;28;20267;-79
2023/05/12 06:05:54;;;;;;;41.07;25.83;;;12.40;99.90;;;;;;5015498;28;20196;-79
2023/05/12 06:08:21;;;;;;;36.53;25.60;;;12.40;99.90;;;;;;5016427;28;20214;-80
2023/05/12 06:10:47;;;;;;;46.13;26.03;;;12.40;99.90;;;;;;5034736;28;20201;-80
2023/05/12 06:13:14;;;;;;;43.23;27.37;;;12.40;99.90;;;;;;5035405;28;20205;-81
2023/05/12 06:15:41;;;;;;;39.13;25.90;;;12.50;99.90;;;;;;5034713;28;20210;-80
2023/05/12 06:18:09;;;;;;;42.45;26.52;;;12.50;99.90;;;;;;5034403;28;20639;-82
2023/05/12 06:20:36;;;;;;;44.25;26.75;;;12.50;99.90;;;;;;5035212;28;20510;-80
2023/05/12 06:23:03;;;;;;;40.33;25.42;;;12.50;99.90;;;;;;5020335;28;20502;-80
2023/05/12 06:25:32;;;;;;;41.50;25.23;;;12.60;99.90;;;;;;5014294;28;20290;-81
2023/05/12 06:27:58;;;;;;;40.27;25.33;;;12.60;99.90;;;;;;5014983;28;20203;-79
2023/05/12 06:30:25;;;;;;;41.77;25.37;;;12.60;99.90;;;;;;5019372;28;20662;-77
2023/05/12 06:32:52;;;;;;;42.53;26.17;;;12.70;99.90;;;;;;5034464;28;20262;-78
2023/05/12 06:35:20;;;;;;;39.63;24.90;;;12.70;99.90;;;;;;5015726;28;20282;-79
2023/05/12 06:37:49;;;;;;;40.23;25.47;;;12.70;99.90;;;;;;5017789;28;20203;-81
2023/05/12 06:40:16;;;;;;;40.13;25.23;;;12.80;99.90;;;;;;5034620;28;20222;-80
2023/05/12 06:42:43;;;;;;;37.63;25.07;;;12.70;99.90;;;;;;5033969;28;20195;-81
2023/05/12 06:45:11;;;;;;;39.97;25.52;;;12.80;99.90;;;;;;5032630;28;20282;-81
2023/05/12 06:47:38;;;;;;;36.03;23.87;;;12.90;99.90;;;;;;5034613;28;20494;-80
2023/05/12 06:50:07;;;;;;;36.43;24.20;;;12.90;99.90;;;;;;5030329;28;20611;-79
2023/05/12 06:52:36;;;;;;;35.43;23.90;;;12.90;99.90;;;;;;5014303;28;20659;-82
2023/05/12 06:55:04;;;;;;;36.60;24.10;;;12.90;99.90;;;;;;5014701;28;20246;-81
2023/05/12 06:57:31;;;;;;;37.80;23.87;;;12.90;99.90;;;;;;5014762;28;20231;-81
2023/05/12 06:59:59;;;;;;;35.93;24.37;;;13.00;99.90;;;;;;5024280;28;20288;-79
2023/05/12 07:02:26;;;;;;;38.77;25.77;;;13.00;99.90;;;;;;5033755;28;20210;-79
2023/05/12 07:04:53;;;;;;;43.10;27.07;;;13.10;99.90;;;;;;5033663;28;20226;-78
2023/05/12 07:07:19;;;;;;;36.97;23.77;;;13.10;99.90;;;;;;5028655;28;20205;-76
2023/05/12 07:09:48;;;;;;;37.77;24.13;;;13.20;99.90;;;;;;5013956;28;20203;-75
2023/05/12 07:12:14;;;;;;;42.25;27.10;;;13.20;99.90;;;;;;5013999;28;20191;-78
2023/05/12 07:14:41;;;;;;;40.13;26.77;;;13.20;99.90;;;;;;5013386;28;20290;-76
2023/05/12 07:17:08;;;;;;;38.42;25.92;;;13.30;99.90;;;;;;5014154;28;20207;-77
2023/05/12 07:19:35;;;;;;;41.00;26.20;;;13.30;99.90;;;;;;5013204;28;20238;-76
2023/05/12 07:22:02;;;;;;;34.47;25.42;;;13.40;99.90;;;;;;5014212;28;20234;-77
2023/05/12 07:24:29;;;;;;;35.15;25.33;;;13.40;99.90;;;;;;5014019;28;20261;-81
2023/05/12 07:26:58;;;;;;;37.07;24.97;;;13.50;99.90;;;;;;5013334;28;20522;-79
2023/05/12 07:29:24;;;;;;;32.92;24.00;;;13.60;99.90;;;;;;5014323;28;20203;-80
2023/05/12 07:31:51;;;;;;;35.30;25.67;;;13.70;99.90;;;;;;5013692;28;20199;-79
2023/05/12 07:34:18;;;;;;;36.33;24.67;;;13.70;99.90;;;;;;5013540;28;20290;-80
2023/05/12 07:36:45;;;;;;;33.97;24.92;;;13.80;99.90;;;;;;5026619;28;20597;-82
2023/05/12 07:39:13;;;;;;;36.23;25.27;;;13.80;99.90;;;;;;5033721;28;20293;-79
2023/05/12 07:41:40;;;;;;;33.60;24.40;;;13.90;99.90;;;;;;5033004;28;20250;-81
2023/05/12 07:44:09;;;;;;;33.83;23.40;;;13.90;99.90;;;;;;5029083;28;20214;-80
2023/05/12 07:46:36;;;;;;;31.83;22.20;;;13.90;99.90;;;;;;5013862;28;20209;-80
2023/05/12 07:49:03;;;;;;;35.37;23.87;;;13.90;99.90;;;;;;5012988;28;20207;-80
2023/05/12 07:51:29;;;;;;;34.00;23.80;;;14.00;99.90;;;;;;5014152;28;20206;-80
2023/05/12 07:53:56;;;;;;;32.93;22.40;;;14.10;99.90;;;;;;5017475;28;20209;-81
2023/05/12 07:56:23;;;;;;;30.83;21.70;;;14.10;99.90;;;;;;5019479;28;20203;-80
2023/05/12 07:58:51;;;;;;;28.13;21.83;;;14.20;99.90;;;;;;5020150;28;20253;-81
2023/05/12 08:01:19;;;;;;;29.08;21.05;;;14.30;99.90;;;;;;5039142;28;20288;-83
2023/05/12 08:03:46;;;;;;;28.05;21.83;;;14.30;99.90;;;;;;5039337;28;20241;-80
2023/05/12 08:06:13;;;;;;;30.55;21.83;;;14.30;99.90;;;;;;5040197;28;20958;-80
2023/05/12 08:08:40;;;;;;;31.33;21.15;;;14.40;99.90;;;;;;5020708;28;20218;-80
2023/05/12 08:11:06;;;;;;;26.58;20.38;;;14.50;99.90;;;;;;5019338;28;20214;-80
2023/05/12 08:13:33;;;;;;;28.00;20.85;;;14.60;99.90;;;;;;5020299;28;20234;-80
2023/05/12 08:16:00;;;;;;;28.58;20.80;;;14.80;99.90;;;;;;5019933;28;20211;-80
2023/05/12 08:18:28;;;;;;;26.05;20.17;;;14.90;99.90;;;;;;5020347;28;20194;-82
2023/05/12 08:20:55;;;;;;;23.70;18.02;;;15.00;99.90;;;;;;5036921;28;20313;-80
2023/05/12 08:23:22;;;;;;;29.88;20.60;;;15.10;99.90;;;;;;5038208;28;20198;-80
2023/05/12 08:25:49;;;;;;;27.50;20.88;;;15.20;99.90;;;;;;5039950;28;20289;-82
2023/05/12 08:28:16;;;;;;;27.08;19.33;;;15.40;99.90;;;;;;5039761;28;20510;-79
2023/05/12 08:30:43;;;;;;;25.35;18.05;;;15.50;99.90;;;;;;5028832;28;20294;-81
2023/05/12 08:33:10;;;;;;;24.83;18.52;;;15.60;99.90;;;;;;5019782;28;20276;-81
2023/05/12 08:35:39;;;;;;;25.23;18.13;;;15.70;99.90;;;;;;5019677;28;20199;-80
2023/05/12 08:38:06;;;;;;;23.42;18.23;;;15.70;99.90;;;;;;5019359;28;20209;-80
2023/05/12 08:40:47;;;;;;;24.27;18.75;;;15.60;99.90;;;;;;5019760;28;20219;-80
2023/05/12 08:43:23;;;;;;;24.23;19.45;;;15.70;99.90;;;;;;5019315;28;20213;-78
2023/05/12 08:45:50;;;;;;;22.95;18.55;;;15.70;99.90;;;;;;5019393;28;20482;-81
2023/05/12 08:48:19;;;;;;;25.25;19.73;;;15.80;99.90;;;;;;5020926;28;20491;-79
2023/05/12 08:50:49;;;;;;;26.10;19.63;;;15.80;99.90;;;;;;5039549;28;20292;-80
2023/05/12 08:53:20;;;;;;;29.77;21.17;;;15.90;99.90;;;;;;5038861;28;20218;-81
2023/05/12 08:55:48;;;;;;;27.10;19.95;;;16.00;99.90;;;;;;5020244;28;20206;-81
2023/05/12 08:58:15;;;;;;;23.20;19.00;;;16.00;99.90;;;;;;5019321;28;20223;-83
2023/05/12 09:00:42;;;;;;;28.60;20.60;;;16.00;99.90;;;;;;5019654;28;20191;-81
2023/05/12 09:03:13;;;;;;;23.08;18.08;;;16.10;99.90;;;;;;5019402;28;20234;-79
2023/05/12 09:05:41;;;;;;;25.75;17.83;;;16.20;99.90;;;;;;5016673;28;20209;-80
2023/05/12 09:08:11;;;;;;;26.73;19.23;;;16.30;99.90;;;;;;5016131;28;20231;-79
2023/05/12 09:10:39;;;;;;;27.10;18.83;;;16.30;99.90;;;;;;5015915;28;20898;-80
2023/05/12 09:13:14;;;;;;;26.63;19.48;;;16.50;99.90;;;;;;5015511;28;20265;-80
2023/05/12 09:15:44;;;;;;;23.65;18.25;;;16.60;99.90;;;;;;5016429;28;20194;-77
2023/05/12 09:18:11;;;;;;;24.48;18.92;;;16.70;99.90;;;;;;5021262;28;20592;-80
2023/05/12 09:20:37;;;;;;;22.42;19.38;;;16.70;99.90;;;;;;5035010;28;20290;-79
2023/05/12 09:23:16;;;;;;;26.33;19.05;;;16.70;99.90;;;;;;5035960;28;20199;-81
2023/05/12 09:25:43;;;;;;;23.92;17.02;;;16.80;99.90;;;;;;5022307;28;20221;-80
2023/05/12 09:28:11;;;;;;;19.77;15.80;;;16.90;99.90;;;;;;5015303;28;20225;-80
2023/05/12 09:30:41;;;;;;;22.70;18.45;;;17.00;99.90;;;;;;5016331;28;20210;-81
2023/05/12 09:33:08;;;;;;;23.48;17.75;;;17.10;99.90;;;;;;5015803;28;20227;-81
2023/05/12 09:35:40;;;;;;;20.52;16.77;;;17.10;99.90;;;;;;5015270;28;20213;-81
2023/05/12 09:38:08;;;;;;;23.85;17.05;;;17.10;99.90;;;;;;5015926;28;20210;-80
2023/05/12 09:40:36;;;;;;;22.00;17.50;;;17.30;99.90;;;;;;5015060;28;20559;-80
2023/05/12 09:43:03;;;;;;;25.15;18.15;;;17.50;99.90;;;;;;5015823;28;20231;-81
2023/05/12 09:45:35;;;;;;;23.45;16.67;;;17.50;99.90;;;;;;5015726;28;20207;-78
2023/05/12 09:48:10;;;;;;;26.17;17.42;;;17.30;99.90;;;;;;5014858;28;20206;-81
2023/05/12 09:50:46;;;;;;;22.60;17.30;;;17.30;99.90;;;;;;5015355;28;20205;-81
2023/05/12 09:53:14;;;;;;;19.70;15.88;;;17.50;99.90;;;;;;5020629;28;20300;-80
2023/05/12 09:55:45;;;;;;;22.30;17.73;;;17.70;99.90;;;;;;5034678;28;20199;-79
2023/05/12 09:58:13;;;;;;;20.67;16.17;;;17.80;99.90;;;;;;5019087;28;20254;-81
2023/05/12 10:00:41;;;;;;;22.75;17.27;;;17.80;99.90;;;;;;5015293;28;20207;-80
2023/05/12 10:03:11;;;;;;;23.05;16.95;;;18.00;99.90;;;;;;5014638;28;20235;-80
2023/05/12 10:05:56;;;;;;;19.52;15.80;;;18.10;99.90;;;;;;5020659;28;20198;-82
2023/05/12 10:08:27;;;;;;;23.48;17.00;;;18.40;99.90;;;;;;5034654;28;20278;-80
2023/05/12 10:10:57;;;;;;;20.85;15.98;;;18.40;99.90;;;;;;5034469;28;20203;-76
2023/05/12 10:13:25;;;;;;;21.02;15.32;;;18.50;99.90;;;;;;5032689;28;20198;-80
2023/05/12 10:15:54;;;;;;;18.60;14.35;;;18.50;99.90;;;;;;5013977;28;20545;-79
2023/05/12 10:18:22;;;;;;;18.55;16.20;;;18.60;99.90;;;;;;5015136;28;20295;-78
2023/05/12 10:20:51;;;;;;;20.45;16.92;;;18.70;99.90;;;;;;5015304;28;20215;-81
2023/05/12 10:23:19;;;;;;;20.55;16.00;;;18.80;99.90;;;;;;5014272;28;20210;-80
2023/05/12 10:25:47;;;;;;;20.10;15.15;;;18.90;99.90;;;;;;5015072;28;20290;-80
2023/05/12 10:28:16;;;;;;;18.27;14.75;;;19.10;99.90;;;;;;5015024;28;20203;-80
2023/05/12 10:30:43;;;;;;;19.70;15.95;;;19.30;99.90;;;;;;5014176;28;20256;-80
2023/05/12 10:33:10;;;;;;;22.42;16.30;;;19.50;99.90;;;;;;5014815;28;20196;-81
2023/05/12 10:35:39;;;;;;;20.38;16.15;;;19.60;99.90;;;;;;5014823;28;20285;-77
2023/05/12 10:38:07;;;;;;;20.88;15.02;;;19.70;99.90;;;;;;5014292;28;20211;-80
2023/05/12 10:40:34;;;;;;;18.55;15.50;;;19.60;99.90;;;;;;5014685;28;20200;-80
2023/05/12 10:43:02;;;;;;;17.30;13.82;;;19.90;99.90;;;;;;5014284;28;20223;-82
2023/05/12 10:45:36;;;;;;;18.30;14.68;;;20.00;99.90;;;;;;5013767;28;20207;-80
2023/05/12 10:48:07;;;;;;;18.25;14.63;;;20.30;99.90;;;;;;5014560;28;20274;-80
2023/05/12 10:50:34;;;;;;;18.13;15.02;;;20.20;99.90;;;;;;5014289;28;20569;-79
2023/05/12 10:53:01;;;;;;;17.65;14.32;;;20.20;99.90;;;;;;5014252;28;20197;-80
2023/05/12 10:55:33;;;;;;;18.27;14.43;;;20.10;99.90;;;;;;5014193;28;20195;-77
2023/05/12 10:58:08;;;;;;;15.43;13.02;;;20.10;99.90;;;;;;5013543;28;20230;-80
2023/05/12 11:00:45;;;;;;;18.65;13.55;;;20.10;99.90;;;;;;5014073;28;20591;-80
2023/05/12 11:03:13;;;;;;;16.92;14.50;;;20.30;99.90;;;;;;5013952;28;20243;-80
2023/05/12 11:05:40;;;;;;;16.60;13.77;;;20.30;99.90;;;;;;5013697;28;20541;-79
2023/05/12 11:08:07;;;;;;;15.50;12.23;;;20.40;99.90;;;;;;5014145;28;20659;-79
2023/05/12 11:10:34;;;;;;;16.38;13.43;;;20.50;99.90;;;;;;5027255;28;20285;-79
2023/05/12 11:13:02;;;;;;;13.57;12.13;;;20.60;99.90;;;;;;5033252;28;20204;-80
2023/05/12 11:15:30;;;;;;;13.73;10.95;;;20.40;99.90;;;;;;5033914;28;20208;-79
2023/05/12 11:17:58;;;;;;;13.88;11.75;;;20.40;99.90;;;;;;5031628;28;20696;-80
2023/05/12 11:20:26;;;;;;;13.82;11.60;;;20.40;99.90;;;;;;5013175;28;20203;-80
2023/05/12 11:22:53;;;;;;;12.68;10.68;;;20.60;99.90;;;;;;5014049;28;20422;-80
2023/05/12 11:25:20;;;;;;;11.05;9.85;;;20.70;99.90;;;;;;5013411;28;20290;-78
2023/05/12 11:27:48;;;;;;;12.48;9.98;;;20.70;99.90;;;;;;5012365;28;20213;-79
2023/05/12 11:30:15;;;;;;;12.45;10.15;;;20.70;99.90;;;;;;5013444;28;20658;-79
2023/05/12 11:32:43;;;;;;;14.40;10.18;;;20.90;99.90;;;;;;5013563;28;20196;-81
2023/05/12 11:35:16;;;;;;;13.23;10.57;;;20.90;99.90;;;;;;5012994;28;20518;-80
2023/05/12 11:37:44;;;;;;;11.82;10.57;;;21.00;99.90;;;;;;5013976;28;20242;-81
2023/05/12 11:40:19;;;;;;;11.27;10.10;;;21.10;99.90;;;;;;5012740;28;20207;-78
2023/05/12 11:42:50;;;;;;;11.30;9.48;;;21.10;99.90;;;;;;5013487;28;20301;-80
2023/05/12 11:45:21;;;;;;;11.63;9.02;;;21.40;99.90;;;;;;5013572;28;20338;-80
2023/05/12 11:47:48;;;;;;;11.32;8.93;;;21.50;99.90;;;;;;5012533;28;20211;-80
2023/05/12 11:50:22;;;;;;;7.95;7.00;;;21.40;99.90;;;;;;5013221;28;20476;-81
2023/05/12 11:52:49;;;;;;;10.05;8.68;;;21.30;99.90;;;;;;5013348;28;20638;-79
2023/05/12 11:55:22;;;;;;;8.75;7.80;;;21.30;99.90;;;;;;5012586;28;20215;-80
2023/05/12 11:57:57;;;;;;;10.43;9.38;;;21.20;99.90;;;;;;5013118;28;20215;-81
2023/05/12 12:00:28;;;;;;;11.13;9.13;;;21.00;99.90;;;;;;5013162;28;20591;-81
2023/05/12 12:03:10;;;;;;;10.90;8.05;;;21.10;99.90;;;;;;5012546;28;20323;-79
2023/05/12 12:05:38;;;;;;;11.13;8.18;;;21.40;99.90;;;;;;5013323;28;20203;-79
2023/05/12 12:08:11;;;;;;;11.18;8.40;;;21.50;99.90;;;;;;5012589;28;20226;-80
2023/05/12 12:10:38;;;;;;;11.18;8.68;;;21.60;99.90;;;;;;5013122;28;20231;-80
2023/05/12 12:13:05;;;;;;;9.45;8.10;;;21.90;99.90;;;;;;5013067;28;20746;-80
2023/05/12 12:15:32;;;;;;;10.55;8.07;;;21.90;99.90;;;;;;5012655;28;20196;-80
2023/05/12 12:17:59;;;;;;;10.85;8.35;;;21.90;99.90;;;;;;5013762;28;20199;-80
2023/05/12 12:20:26;;;;;;;9.35;8.05;;;21.90;99.90;;;;;;5013299;28;20203;-80
2023/05/12 12:22:54;;;;;;;10.05;7.75;;;22.00;99.90;;;;;;5012507;28;20227;-80
2023/05/12 12:25:22;;;;;;;9.63;8.63;;;22.10;99.90;;;;;;5013343;28;20286;-79
2023/05/12 12:27:49;;;;;;;11.50;8.75;;;22.10;99.90;;;;;;5013072;28;20306;-81
2023/05/12 12:30:16;;;;;;;10.00;7.53;;;22.00;99.90;;;;;;5012566;28;20259;-82
2023/05/12 12:32:44;;;;;;;9.55;7.68;;;22.00;99.90;;;;;;5013110;28;20207;-79
2023/05/12 12:35:12;;;;;;;7.43;6.72;;;22.00;99.90;;;;;;5012945;28;20592;-80
2023/05/12 12:37:39;;;;;;;7.50;6.78;;;22.00;99.90;;;;;;5012484;28;20207;-81
2023/05/12 12:40:09;;;;;;;8.13;7.32;;;22.20;99.90;;;;;;5014659;28;20238;-79